createdAt,value
2022-09-28T00:01:08.313Z,9.38
2022-09-28T00:03:35.574Z,9.52
2022-09-28T00:06:04.842Z,8.43
2022-09-28T00:08:31.525Z,9.27
2022-09-28T00:10:58.541Z,8.63
2022-09-28T00:13:25.302Z,9.88
2022-09-28T00:16:03.615Z,8.95
2022-09-28T00:18:30.929Z,9.00
2022-09-28T00:21:02.428Z,9.65
2022-09-28T00:23:29.066Z,9.40
2022-09-28T00:25:55.693Z,8.68
2022-09-28T00:28:22.349Z,10.32
2022-09-28T00:30:48.958Z,10.88
2022-09-28T00:33:15.566Z,11.98
2022-09-28T00:35:43.586Z,11.75
2022-09-28T00:38:10.352Z,11.48
2022-09-28T00:40:37.026Z,14.02
2022-09-28T00:43:20.189Z,12.45
2022-09-28T00:46:02.392Z,13.95
2022-09-28T00:48:33.944Z,13.02
2022-09-28T00:51:04.925Z,14.15
2022-09-28T00:53:36.446Z,14.20
2022-09-28T00:56:07.453Z,13.57
2022-09-28T00:58:40.724Z,13.25
2022-09-28T01:01:07.801Z,12.73
2022-09-28T01:03:34.579Z,14.60
2022-09-28T01:06:03.864Z,13.57
2022-09-28T01:08:32.905Z,13.60
2022-09-28T01:11:00.025Z,15.68
2022-09-28T01:13:27.603Z,15.52
2022-09-28T01:16:08.222Z,16.50
2022-09-28T01:18:59.382Z,17.23
2022-09-28T01:21:26.412Z,16.73
2022-09-28T01:24:21.720Z,15.70
2022-09-28T01:27:11.605Z,16.70
2022-09-28T01:29:41.136Z,14.88
2022-09-28T01:32:48.714Z,14.48
2022-09-28T01:35:18.376Z,11.43
2022-09-28T01:37:52.792Z,10.60
2022-09-28T01:40:22.735Z,9.35
2022-09-28T01:42:54.898Z,7.32
2022-09-28T01:45:30.217Z,8.55
2022-09-28T01:48:01.167Z,6.63
2022-09-28T01:50:30.799Z,4.57
2022-09-28T01:53:16.499Z,5.97
2022-09-28T01:55:50.918Z,4.95
2022-09-28T01:58:28.401Z,3.55
2022-09-28T02:01:03.365Z,3.30
2022-09-28T02:03:56.769Z,2.25
2022-09-28T02:06:47.741Z,2.83
2022-09-28T02:09:22.245Z,2.55
2022-09-28T02:11:55.038Z,2.50
2022-09-28T02:14:22.893Z,1.95
2022-09-28T02:16:52.464Z,1.98
2022-09-28T02:19:22.298Z,1.92
2022-09-28T02:24:40.884Z,1.83
2022-09-28T02:27:30.039Z,1.80
2022-09-28T02:29:56.786Z,1.83
2022-09-28T02:32:25.110Z,1.25
2022-09-28T02:34:52.209Z,1.20
2022-09-28T02:37:18.850Z,1.63
2022-09-28T02:39:45.478Z,1.23
2022-09-28T02:42:25.640Z,1.17
2022-09-28T02:45:16.306Z,1.60
2022-09-28T02:48:31.478Z,1.40
2022-09-28T02:51:34.615Z,1.10
2022-09-28T02:54:32.643Z,1.35
2022-09-28T02:57:29.441Z,1.13
2022-09-28T03:00:12.463Z,0.98
2022-09-28T03:03:09.312Z,1.05
2022-09-28T03:05:45.167Z,1.25
2022-09-28T03:08:27.676Z,1.10
2022-09-28T03:11:02.479Z,2.00
2022-09-28T03:13:29.788Z,1.33
2022-09-28T03:16:10.131Z,1.05
2022-09-28T03:18:37.002Z,1.30
2022-09-28T03:21:04.727Z,1.20
2022-09-28T03:23:31.765Z,0.90
2022-09-28T03:25:58.516Z,1.10
2022-09-28T03:28:25.918Z,1.10
2022-09-28T03:30:52.769Z,1.27
2022-09-28T03:33:19.996Z,1.30
2022-09-28T03:35:48.134Z,1.40
2022-09-28T03:38:14.866Z,1.30
2022-09-28T03:40:41.562Z,1.33
2022-09-28T03:43:08.298Z,1.25
2022-09-28T03:45:35.074Z,1.52
2022-09-28T03:48:01.825Z,1.45
2022-09-28T03:50:28.481Z,1.77
2022-09-28T03:52:55.613Z,1.80
2022-09-28T03:55:22.214Z,1.70
2022-09-28T03:57:55.975Z,1.77
2022-09-28T04:00:23.020Z,1.92
2022-09-28T04:02:49.758Z,2.65
2022-09-28T04:05:16.432Z,2.00
2022-09-28T04:07:43.024Z,2.30
2022-09-28T04:10:09.883Z,1.85
2022-09-28T04:12:36.448Z,2.60
2022-09-28T04:15:03.281Z,2.33
2022-09-28T04:17:29.838Z,2.33
2022-09-28T04:19:57.766Z,2.35
2022-09-28T04:22:24.718Z,1.77
2022-09-28T04:24:51.316Z,2.17
2022-09-28T04:27:36.417Z,2.00
2022-09-28T04:30:03.570Z,2.08
2022-09-28T04:32:30.263Z,2.47
2022-09-28T04:34:57.039Z,1.90
2022-09-28T04:37:23.691Z,2.42
2022-09-28T04:39:50.318Z,2.20
2022-09-28T04:42:16.990Z,2.10
2022-09-28T04:44:43.578Z,2.60
2022-09-28T04:47:10.204Z,2.15
2022-09-28T04:49:38.388Z,2.40
2022-09-28T04:52:06.384Z,2.78
2022-09-28T04:54:33.136Z,2.58
2022-09-28T04:56:59.915Z,2.60
2022-09-28T04:59:26.485Z,2.78
2022-09-28T05:01:54.078Z,3.33
2022-09-28T05:04:25.659Z,2.70
2022-09-28T05:06:52.671Z,2.88
2022-09-28T05:09:19.386Z,3.83
2022-09-28T05:11:46.039Z,2.80
2022-09-28T05:14:12.911Z,3.17
2022-09-28T05:16:39.539Z,3.20
2022-09-28T05:19:06.989Z,3.05
2022-09-28T05:21:33.584Z,2.65
2022-09-28T05:24:00.362Z,3.22
2022-09-28T05:26:26.940Z,3.80
2022-09-28T05:28:53.745Z,4.20
2022-09-28T05:31:20.378Z,3.58
2022-09-28T05:33:46.971Z,4.70
2022-09-28T05:36:13.578Z,4.03
2022-09-28T05:38:40.160Z,3.58
2022-09-28T05:41:07.129Z,3.40
2022-09-28T05:43:34.181Z,3.55
2022-09-28T05:46:00.878Z,3.72
2022-09-28T05:48:28.295Z,4.43
2022-09-28T05:50:55.230Z,5.18
2022-09-28T05:53:22.157Z,4.20
2022-09-28T05:55:48.814Z,4.57
2022-09-28T05:58:15.857Z,4.03
2022-09-28T06:00:42.997Z,3.80
2022-09-28T06:03:14.251Z,4.03
2022-09-28T06:05:41.018Z,3.60
2022-09-28T06:08:10.454Z,4.35
2022-09-28T06:10:37.215Z,3.63
2022-09-28T06:13:03.892Z,2.80
2022-09-28T06:15:33.760Z,3.00
2022-09-28T06:18:02.826Z,2.80
2022-09-28T06:20:32.897Z,2.70
2022-09-28T06:22:59.534Z,3.10
2022-09-28T06:25:27.787Z,2.47
2022-09-28T06:28:06.234Z,3.25
2022-09-28T06:30:38.151Z,3.00
2022-09-28T06:33:07.011Z,2.28
2022-09-28T06:35:34.752Z,2.30
2022-09-28T06:38:01.826Z,2.85
2022-09-28T06:40:29.253Z,2.63
2022-09-28T06:42:58.761Z,2.55
2022-09-28T06:45:26.878Z,2.83
2022-09-28T06:47:56.637Z,2.05
2022-09-28T06:52:52.478Z,2.45
2022-09-28T06:55:19.798Z,1.98
2022-09-28T06:57:47.128Z,1.83
2022-09-28T07:00:14.458Z,1.80
2022-09-28T07:02:41.092Z,1.60
2022-09-28T07:05:09.575Z,1.63
2022-09-28T07:07:36.420Z,2.10
2022-09-28T07:10:03.187Z,1.90
2022-09-28T07:12:30.318Z,2.53
2022-09-28T07:14:57.659Z,2.22
2022-09-28T07:17:25.465Z,1.92
2022-09-28T07:19:52.712Z,2.28
2022-09-28T07:22:28.207Z,2.45
2022-09-28T07:24:57.837Z,2.13
2022-09-28T07:27:28.860Z,1.83
2022-09-28T07:29:55.757Z,2.25
2022-09-28T07:32:22.723Z,2.20
2022-09-28T07:34:50.247Z,2.72
2022-09-28T07:37:18.934Z,2.38
2022-09-28T07:40:05.076Z,2.33
2022-09-28T07:42:31.997Z,2.47
2022-09-28T07:44:59.079Z,2.40
2022-09-28T07:47:30.909Z,1.85
2022-09-28T07:50:00.556Z,1.88
2022-09-28T07:52:28.803Z,2.30
2022-09-28T07:54:55.791Z,2.08
2022-09-28T07:57:23.444Z,2.17
2022-09-28T07:59:53.546Z,1.63
2022-09-28T08:02:21.472Z,1.90
2022-09-28T08:04:49.516Z,1.63
2022-09-28T08:07:21.561Z,1.90
2022-09-28T08:09:51.062Z,2.90
2022-09-28T08:12:19.656Z,2.05
2022-09-28T08:14:46.934Z,2.40
2022-09-28T08:17:13.962Z,2.55
2022-09-28T08:19:59.354Z,2.10
2022-09-28T08:22:26.026Z,2.67
2022-09-28T08:24:52.723Z,1.63
2022-09-28T08:27:19.421Z,2.08
2022-09-28T08:29:46.102Z,2.38
2022-09-28T08:32:12.740Z,2.10
2022-09-28T08:34:41.244Z,1.60
2022-09-28T08:37:12.618Z,1.83
2022-09-28T08:39:39.234Z,1.85
2022-09-28T08:42:24.070Z,2.50
2022-09-28T08:44:58.018Z,1.55
2022-09-28T08:47:50.662Z,1.20
2022-09-28T08:50:22.663Z,1.35
2022-09-28T08:52:57.298Z,1.10
2022-09-28T08:55:37.853Z,2.00
2022-09-28T08:58:28.178Z,1.67
2022-09-28T09:00:55.159Z,1.52
2022-09-28T09:03:29.603Z,1.42
2022-09-28T09:06:14.228Z,1.55
2022-09-28T09:08:50.042Z,1.23
2022-09-28T09:11:43.744Z,1.02
2022-09-28T09:14:43.469Z,0.95
2022-09-28T09:19:55.017Z,1.10
2022-09-28T09:22:41.242Z,1.10
2022-09-28T09:25:26.318Z,0.90
2022-09-28T09:28:08.019Z,1.40
2022-09-28T09:30:50.727Z,0.57
2022-09-28T09:33:29.037Z,0.70
2022-09-28T09:36:21.916Z,1.00
2022-09-28T09:39:01.808Z,0.80
2022-09-28T09:41:54.505Z,1.00
2022-09-28T09:44:45.793Z,0.82
2022-09-28T09:47:18.330Z,0.80
2022-09-28T09:49:57.282Z,0.60
2022-09-28T09:52:42.312Z,0.80
2022-09-28T09:55:10.938Z,0.90
2022-09-28T09:57:51.353Z,0.88
2022-09-28T10:00:18.912Z,0.60
2022-09-28T10:02:48.211Z,0.60
2022-09-28T10:05:17.749Z,0.80
2022-09-28T10:08:08.698Z,0.60
2022-09-28T10:10:39.015Z,0.80
2022-09-28T10:13:05.768Z,0.82
2022-09-28T10:15:35.220Z,1.13
2022-09-28T10:18:06.845Z,0.60
2022-09-28T10:20:37.397Z,0.57
2022-09-28T10:23:06.865Z,0.80
2022-09-28T10:25:37.271Z,0.90
2022-09-28T10:28:06.268Z,0.77
2022-09-28T10:30:42.819Z,0.70
2022-09-28T10:33:29.645Z,0.65
2022-09-28T10:35:57.122Z,0.98
2022-09-28T10:38:24.544Z,0.60
2022-09-28T10:40:56.533Z,0.70
2022-09-28T10:43:37.009Z,0.65
2022-09-28T10:46:10.424Z,0.63
2022-09-28T10:48:53.734Z,0.60
2022-09-28T10:51:20.874Z,0.57
2022-09-28T10:54:01.605Z,0.50
2022-09-28T10:56:35.308Z,0.75
2022-09-28T10:59:02.216Z,0.80
2022-09-28T11:01:33.409Z,0.70
2022-09-28T11:04:02.782Z,0.50
2022-09-28T11:06:32.842Z,0.60
2022-09-28T11:09:03.090Z,0.50
2022-09-28T11:11:31.369Z,0.50
2022-09-28T11:14:03.920Z,0.60
2022-09-28T11:16:33.400Z,1.90
2022-09-28T11:19:18.777Z,0.40
2022-09-28T11:21:48.240Z,0.63
2022-09-28T11:24:18.843Z,0.60
2022-09-28T11:26:48.362Z,1.00
2022-09-28T11:29:26.788Z,1.35
2022-09-28T11:31:59.063Z,1.05
2022-09-28T11:34:57.440Z,0.98
2022-09-28T11:37:43.744Z,0.95
2022-09-28T11:40:22.374Z,0.60
2022-09-28T11:46:00.364Z,1.30
2022-09-28T11:48:47.448Z,1.10
2022-09-28T11:51:26.320Z,0.93
2022-09-28T11:54:14.375Z,0.63
2022-09-28T11:56:48.939Z,0.80
2022-09-28T11:59:27.999Z,0.80
2022-09-28T12:02:03.448Z,0.80
2022-09-28T12:04:38.261Z,0.50
2022-09-28T12:07:30.341Z,0.80
2022-09-28T12:10:02.529Z,0.75
2022-09-28T12:12:50.234Z,0.93
2022-09-28T12:15:25.610Z,0.77
2022-09-28T12:18:22.037Z,1.33
2022-09-28T12:21:13.938Z,0.82
2022-09-28T12:23:44.318Z,0.73
2022-09-28T12:26:35.830Z,1.10
2022-09-28T12:29:22.716Z,0.70
2022-09-28T12:32:26.737Z,0.70
2022-09-28T12:34:53.436Z,0.65
2022-09-28T12:37:38.334Z,0.60
2022-09-28T12:40:42.032Z,1.13
2022-09-28T12:43:37.220Z,0.52
2022-09-28T12:46:15.731Z,0.80
2022-09-28T12:49:04.124Z,0.90
2022-09-28T12:51:57.572Z,0.70
2022-09-28T12:54:39.259Z,0.60
2022-09-28T12:57:30.614Z,0.60
2022-09-28T13:00:31.060Z,0.55
2022-09-28T13:03:24.264Z,0.65
2022-09-28T13:06:12.845Z,0.65
2022-09-28T13:09:01.211Z,0.50
2022-09-28T13:11:43.174Z,0.88
2022-09-28T13:14:41.642Z,0.70
2022-09-28T13:17:27.821Z,0.75
2022-09-28T13:20:25.347Z,0.65
2022-09-28T13:23:11.760Z,0.47
2022-09-28T13:25:46.176Z,0.70
2022-09-28T13:28:15.573Z,0.40
2022-09-28T13:30:45.067Z,1.25
2022-09-28T13:33:20.385Z,0.43
2022-09-28T13:35:47.055Z,0.63
2022-09-28T13:38:29.754Z,0.65
2022-09-28T13:41:06.090Z,0.50
2022-09-28T13:44:07.022Z,0.60
2022-09-28T13:46:55.079Z,0.80
2022-09-28T13:49:55.403Z,0.50
2022-09-28T13:52:57.795Z,0.90
2022-09-28T13:56:03.144Z,0.77
2022-09-28T13:58:38.463Z,1.25
2022-09-28T14:01:14.256Z,0.88
2022-09-28T14:03:55.999Z,0.70
2022-09-28T14:06:33.216Z,0.45
2022-09-28T14:09:45.572Z,1.38
2022-09-28T14:12:35.204Z,1.00
2022-09-28T14:15:06.492Z,0.90
2022-09-28T14:17:33.044Z,1.15
2022-09-28T14:20:06.259Z,1.10
2022-09-28T14:23:00.747Z,1.95
2022-09-28T14:25:30.868Z,2.72
2022-09-28T14:28:16.783Z,2.05
2022-09-28T14:30:43.513Z,0.93
2022-09-28T14:33:30.068Z,0.77
2022-09-28T14:36:41.802Z,0.80
2022-09-28T14:39:52.620Z,0.60
2022-09-28T14:42:23.640Z,0.60
2022-09-28T14:45:06.164Z,0.80
2022-09-28T14:47:37.686Z,0.68
2022-09-28T14:50:23.675Z,0.60
2022-09-28T14:53:21.020Z,1.05
2022-09-28T14:55:51.806Z,1.00
2022-09-28T14:58:29.911Z,0.85
2022-09-28T15:01:17.041Z,0.70
2022-09-28T15:03:46.726Z,0.75
2022-09-28T15:06:16.576Z,0.70
2022-09-28T15:11:16.874Z,1.05
2022-09-28T15:13:43.906Z,0.70
2022-09-28T15:16:13.652Z,0.68
2022-09-28T15:18:53.178Z,0.70
2022-09-28T15:21:20.568Z,0.70
2022-09-28T15:23:48.020Z,1.13
2022-09-28T15:26:28.374Z,0.68
2022-09-28T15:28:55.585Z,0.70
2022-09-28T15:31:26.248Z,0.73
2022-09-28T15:34:12.133Z,0.90
2022-09-28T15:36:46.331Z,0.70
2022-09-28T15:39:15.207Z,0.68
2022-09-28T15:41:44.035Z,0.60
2022-09-28T15:44:10.595Z,0.70
2022-09-28T15:46:41.430Z,0.90
2022-09-28T15:49:25.682Z,0.85
2022-09-28T15:51:55.991Z,0.55
2022-09-28T15:54:38.881Z,0.73
2022-09-28T15:57:05.533Z,0.98
2022-09-28T15:59:34.720Z,1.00
2022-09-28T16:02:16.590Z,1.02
2022-09-28T16:04:50.455Z,0.90
2022-09-28T16:07:20.015Z,0.90
2022-09-28T16:10:21.599Z,5.13
2022-09-28T16:12:56.209Z,5.82
2022-09-28T16:15:34.962Z,3.92
2022-09-28T16:18:04.960Z,2.03
2022-09-28T16:20:37.776Z,2.28
2022-09-28T16:23:21.255Z,2.15
2022-09-28T16:25:52.449Z,2.08
2022-09-28T16:28:35.059Z,1.90
2022-09-28T16:31:12.583Z,1.73
2022-09-28T16:33:59.342Z,1.83
2022-09-28T16:36:29.963Z,1.65
2022-09-28T16:38:56.864Z,6.03
2022-09-28T16:41:27.280Z,11.23
2022-09-28T16:44:00.965Z,5.47
2022-09-28T16:46:37.126Z,2.72
2022-09-28T16:49:06.055Z,1.70
2022-09-28T16:51:34.193Z,2.00
2022-09-28T16:54:34.595Z,2.72
2022-09-28T16:57:03.209Z,2.63
2022-09-28T16:59:30.519Z,4.35
2022-09-28T17:01:57.793Z,2.72
2022-09-28T17:04:25.704Z,2.13
2022-09-28T17:06:54.377Z,4.97
2022-09-28T17:09:24.240Z,7.15
2022-09-28T17:11:56.583Z,5.72
2022-09-28T17:14:24.148Z,6.28
2022-09-28T17:17:13.770Z,4.78
2022-09-28T17:19:40.772Z,5.80
2022-09-28T17:22:09.197Z,6.60
2022-09-28T17:24:36.028Z,6.03
2022-09-28T17:27:03.330Z,6.32
2022-09-28T17:29:30.224Z,2.20
2022-09-28T17:31:56.855Z,2.05
2022-09-28T17:34:23.800Z,1.90
2022-09-28T17:36:50.429Z,1.67
2022-09-28T17:39:19.155Z,1.65
2022-09-28T17:41:46.332Z,2.22
2022-09-28T17:44:15.861Z,6.22
2022-09-28T17:46:49.334Z,6.80
2022-09-28T17:49:16.816Z,16.75
2022-09-28T17:51:43.463Z,15.75
2022-09-28T17:54:10.840Z,5.00
2022-09-28T17:56:37.559Z,2.80
2022-09-28T17:59:07.621Z,2.20
2022-09-28T18:01:37.588Z,2.42
2022-09-28T18:04:06.584Z,4.07
2022-09-28T18:06:33.833Z,11.35
2022-09-28T18:09:02.812Z,16.90
2022-09-28T18:11:30.080Z,38.10
2022-09-28T18:13:56.720Z,28.13
2022-09-28T18:16:23.693Z,13.98
2022-09-28T18:18:50.420Z,5.35
2022-09-28T18:21:17.118Z,4.63
2022-09-28T18:23:43.678Z,6.72
2022-09-28T18:26:14.751Z,7.07
2022-09-28T18:28:41.695Z,3.75
2022-09-28T18:31:12.090Z,12.13
2022-09-28T18:33:38.948Z,4.53
2022-09-28T18:36:06.760Z,4.68
2022-09-28T18:38:37.777Z,3.42
2022-09-28T18:41:15.749Z,4.82
2022-09-28T18:43:48.778Z,2.92
2022-09-28T18:46:17.614Z,2.15
2022-09-28T18:48:44.384Z,2.60
2022-09-28T18:51:12.472Z,1.92
2022-09-28T18:53:40.194Z,1.90
2022-09-28T18:56:09.344Z,3.47
2022-09-28T18:58:37.614Z,3.17
2022-09-28T19:01:29.556Z,1.80
2022-09-28T19:04:03.126Z,1.63
2022-09-28T19:06:31.827Z,1.98
2022-09-28T19:08:59.062Z,3.10
2022-09-28T19:11:26.157Z,1.88
2022-09-28T19:13:54.467Z,2.42
2022-09-28T19:16:28.086Z,2.30
2022-09-28T19:18:58.785Z,2.03
2022-09-28T19:21:26.714Z,2.03
2022-09-28T19:23:55.328Z,1.52
2022-09-28T19:26:24.814Z,2.22
2022-09-28T19:28:51.760Z,2.75
2022-09-28T19:31:19.214Z,1.70
2022-09-28T19:33:46.441Z,2.20
2022-09-28T19:36:18.462Z,2.47
2022-09-28T19:38:45.814Z,2.08
2022-09-28T19:41:37.812Z,2.13
2022-09-28T19:44:24.404Z,2.67
2022-09-28T19:46:53.354Z,2.25
2022-09-28T19:49:21.289Z,2.38
2022-09-28T19:54:38.170Z,3.03
2022-09-28T19:57:07.688Z,2.42
2022-09-28T19:59:36.445Z,2.28
2022-09-28T20:02:04.239Z,2.28
2022-09-28T20:04:30.902Z,3.28
2022-09-28T20:06:57.734Z,4.90
2022-09-28T20:09:24.386Z,4.57
2022-09-28T20:11:51.890Z,5.57
2022-09-28T20:14:18.640Z,4.97
2022-09-28T20:16:48.699Z,5.38
2022-09-28T20:19:15.465Z,4.38
2022-09-28T20:21:42.263Z,2.60
2022-09-28T20:24:11.586Z,2.92
2022-09-28T20:26:38.365Z,2.10
2022-09-28T20:29:07.309Z,1.95
2022-09-28T20:31:38.680Z,2.10
2022-09-28T20:34:06.116Z,2.88
2022-09-28T20:36:33.751Z,5.85
2022-09-28T20:39:04.248Z,10.85
2022-09-28T20:41:34.647Z,2.35
2022-09-28T20:44:05.290Z,2.42
2022-09-28T20:46:32.928Z,2.13
2022-09-28T20:48:59.881Z,2.08
2022-09-28T20:51:26.761Z,2.42
2022-09-28T20:53:55.614Z,2.42
2022-09-28T20:56:38.652Z,2.60
2022-09-28T20:59:10.291Z,2.45
2022-09-28T21:01:37.400Z,5.35
2022-09-28T21:04:06.232Z,4.60
2022-09-28T21:06:35.144Z,3.63
2022-09-28T21:09:02.995Z,2.20
2022-09-28T21:11:29.902Z,1.70
2022-09-28T21:13:58.933Z,2.10
2022-09-28T21:16:27.341Z,3.63
2022-09-28T21:18:54.255Z,2.95
2022-09-28T21:21:23.062Z,5.20
2022-09-28T21:23:54.042Z,3.73
2022-09-28T21:26:26.474Z,5.72
2022-09-28T21:28:58.673Z,4.50
2022-09-28T21:31:29.299Z,2.00
2022-09-28T21:33:57.321Z,1.30
2022-09-28T21:36:24.716Z,2.50
2022-09-28T21:38:51.430Z,2.75
2022-09-28T21:41:18.066Z,2.80
2022-09-28T21:43:46.023Z,2.40
2022-09-28T21:46:12.850Z,2.00
2022-09-28T21:48:39.797Z,1.70
2022-09-28T21:51:09.142Z,1.63
2022-09-28T21:53:37.772Z,1.98
2022-09-28T21:56:06.691Z,2.47
2022-09-28T21:58:34.821Z,2.13
2022-09-28T22:01:14.682Z,3.63
2022-09-28T22:03:43.882Z,11.60
2022-09-28T22:06:11.132Z,3.10
2022-09-28T22:08:38.427Z,12.45
2022-09-28T22:11:11.303Z,4.15
2022-09-28T22:13:43.576Z,3.67
2022-09-28T22:16:11.162Z,6.25
2022-09-28T22:18:37.979Z,5.90
2022-09-28T22:21:08.895Z,3.10
2022-09-28T22:23:36.580Z,2.53
2022-09-28T22:26:07.635Z,2.65
2022-09-28T22:28:34.858Z,2.50
2022-09-28T22:31:01.749Z,2.40
2022-09-28T22:33:28.445Z,2.78
2022-09-28T22:35:55.373Z,2.55
2022-09-28T22:38:24.392Z,2.47
2022-09-28T22:40:55.684Z,2.13
2022-09-28T22:43:24.419Z,2.08
2022-09-28T22:46:01.186Z,1.90
2022-09-28T22:48:28.035Z,1.95
2022-09-28T22:50:54.881Z,3.22
2022-09-28T22:53:21.526Z,5.15
2022-09-28T22:55:48.446Z,2.80
2022-09-28T22:58:15.106Z,2.75
2022-09-28T23:00:43.182Z,2.70
2022-09-28T23:03:09.880Z,1.95
2022-09-28T23:05:36.564Z,1.50
2022-09-28T23:08:03.806Z,3.63
2022-09-28T23:10:30.430Z,3.33
2022-09-28T23:12:57.093Z,3.40
2022-09-28T23:15:24.517Z,2.30
2022-09-28T23:17:54.665Z,2.40
2022-09-28T23:20:21.910Z,2.40
2022-09-28T23:22:49.513Z,3.35
2022-09-28T23:25:17.755Z,3.80
2022-09-28T23:27:48.879Z,2.20
2022-09-28T23:30:19.031Z,3.10
2022-09-28T23:32:45.861Z,3.42
2022-09-28T23:35:13.517Z,2.63
2022-09-28T23:37:40.188Z,2.38
2022-09-28T23:40:07.419Z,2.83
2022-09-28T23:42:35.413Z,3.20
2022-09-28T23:45:02.139Z,2.58
2022-09-28T23:47:28.762Z,2.58
2022-09-28T23:49:55.332Z,2.00
2022-09-28T23:52:22.050Z,2.70
2022-09-28T23:54:48.649Z,3.17
2022-09-28T23:57:15.224Z,2.83
2022-09-28T23:59:41.827Z,2.80
